Time;durP1;ratioP1;P1;durP2;ratioP2;P2;SDS_P1;SDS_P2;PMS_P1;PMS_P2;Temp;Humidity;BMP_temperature;BMP_pressure;BME280_temperature;BME280_humidity;BME280_pressure;Samples;Min_cycle;Max_cycle;Signal;HPM_P1;HPM_P2
2024/02/27 00:00:07;;;;;;;45.42;30.08;;;;;;;5.79;92.72;100657.44;5036414;28;20049;-81
2024/02/27 00:02:33;;;;;;;47.60;31.13;;;;;;;5.77;92.60;100659.34;5020584;28;20132;-81
2024/02/27 00:05:00;;;;;;;42.92;29.70;;;;;;;5.77;91.91;100656.72;5031458;28;20046;-81
2024/02/27 00:07:26;;;;;;;45.03;30.63;;;;;;;5.75;92.60;100655.97;5041299;28;20049;-82
2024/02/27 00:09:53;;;;;;;44.60;30.42;;;;;;;5.78;92.35;100668.06;5032848;28;20076;-81
2024/02/27 00:12:21;;;;;;;44.50;31.13;;;;;;;5.83;92.29;100658.09;5032456;28;20057;-81
2024/02/27 00:14:48;;;;;;;45.63;31.90;;;;;;;5.79;92.23;100659.22;5024957;28;20049;-81
2024/02/27 00:17:16;;;;;;;46.40;31.88;;;;;;;5.77;91.87;100655.88;5037163;28;20165;-81
2024/02/27 00:19:42;;;;;;;48.75;31.52;;;;;;;5.78;92.64;100658.38;5029198;28;20517;-82
2024/02/27 00:22:09;;;;;;;48.30;31.90;;;;;;;5.76;92.48;100668.16;5037642;28;20081;-81
2024/02/27 00:24:36;;;;;;;46.50;31.83;;;;;;;5.80;92.23;100679.28;5019537;28;20084;-81
2024/02/27 00:27:02;;;;;;;46.13;31.88;;;;;;;5.82;91.55;100666.91;5017865;28;20084;-82
2024/02/27 00:29:31;;;;;;;45.65;31.95;;;;;;;5.82;91.96;100666.91;5025085;28;20092;-82
2024/02/27 00:31:58;;;;;;;48.20;31.85;;;;;;;5.80;92.36;100674.91;5021700;28;20046;-82
2024/02/27 00:34:26;;;;;;;47.92;31.70;;;;;;;5.79;92.63;100682.84;5036750;28;20526;-81
2024/02/27 00:36:53;;;;;;;46.75;32.05;;;;;;;5.74;92.35;100677.91;5028352;28;20088;-82
2024/02/27 00:39:19;;;;;;;48.20;33.13;;;;;;;5.75;92.19;100676.13;5036300;28;20088;-81
2024/02/27 00:41:48;;;;;;;47.17;31.70;;;;;;;5.74;92.26;100677.06;5025394;28;20108;-81
2024/02/27 00:44:15;;;;;;;48.45;32.42;;;;;;;5.68;91.93;100672.25;5028731;28;20085;-82
2024/02/27 00:46:42;;;;;;;47.03;32.60;;;;;;;5.71;92.23;100678.09;5030992;28;20073;-81
2024/02/27 00:49:09;;;;;;;49.30;31.52;;;;;;;5.74;92.19;100683.16;5020670;28;20046;-81
2024/02/27 00:51:37;;;;;;;46.47;31.88;;;;;;;5.82;91.48;100686.13;5023558;28;20061;-81
2024/02/27 00:54:03;;;;;;;49.92;33.83;;;;;;;5.80;91.56;100688.03;5033026;28;20094;-81
2024/02/27 00:56:30;;;;;;;45.70;32.28;;;;;;;5.80;91.16;100687.16;5039725;28;20445;-81
2024/02/27 00:58:57;;;;;;;45.50;31.83;;;;;;;5.83;91.25;100698.31;5038797;28;20123;-82
2024/02/27 01:01:23;;;;;;;46.67;31.48;;;;;;;5.81;91.20;100694.97;5034006;28;20121;-81
2024/02/27 01:03:50;;;;;;;47.30;33.50;;;;;;;5.80;91.47;100695.91;5031550;28;20084;-81
2024/02/27 01:06:16;;;;;;;46.50;31.30;;;;;;;5.83;91.55;100700.94;5033478;28;20061;-81
2024/02/27 01:08:44;;;;;;;45.40;31.85;;;;;;;5.77;91.75;100703.97;5035605;28;20068;-80
2024/02/27 01:11:13;;;;;;;50.05;33.38;;;;;;;5.79;92.10;100704.69;5020438;28;20047;-81
2024/02/27 01:13:40;;;;;;;48.10;32.67;;;;;;;5.82;91.53;100711.56;5024797;28;20073;-80
2024/02/27 01:16:07;;;;;;;47.53;33.00;;;;;;;5.78;91.42;100721.41;5027866;28;20049;-79
2024/02/27 01:18:34;;;;;;;46.28;32.42;;;;;;;5.80;91.15;100718.69;5033295;28;20065;-79
2024/02/27 01:21:02;;;;;;;47.03;31.45;;;;;;;5.82;91.11;100719.44;5033264;28;20101;-80
2024/02/27 01:23:28;;;;;;;47.17;33.47;;;;;;;5.79;90.83;100717.00;5035021;28;20049;-79
2024/02/27 01:25:56;;;;;;;47.92;32.15;;;;;;;5.69;91.63;100727.28;5040668;28;20046;-81
2024/02/27 01:28:23;;;;;;;46.95;32.50;;;;;;;5.79;91.44;100730.13;5025350;28;20504;-80
2024/02/27 01:30:50;;;;;;;47.05;31.95;;;;;;;5.75;91.15;100732.09;5034827;28;20076;-80
2024/02/27 01:33:16;;;;;;;48.20;32.67;;;;;;;5.80;91.18;100729.19;5026225;28;20534;-79
2024/02/27 01:35:43;;;;;;;51.80;33.33;;;;;;;5.80;90.90;100734.44;5035135;28;20080;-81
2024/02/27 01:38:10;;;;;;;46.75;31.63;;;;;;;5.77;90.51;100734.66;5036690;28;20053;-79
2024/02/27 01:40:36;;;;;;;46.75;31.52;;;;;;;5.81;90.23;100730.88;5025860;28;20133;-81
2024/02/27 01:43:04;;;;;;;47.50;32.10;;;;;;;5.75;90.49;100736.53;5037307;28;20072;-81
2024/02/27 01:45:31;;;;;;;45.28;31.40;;;;;;;5.84;89.88;100738.53;5025407;28;20058;-82
2024/02/27 01:47:58;;;;;;;47.97;32.05;;;;;;;5.82;89.84;100741.28;5041135;28;20080;-82
2024/02/27 01:50:25;;;;;;;44.67;30.83;;;;;;;5.85;89.88;100740.25;5034023;28;20079;-81
2024/02/27 01:52:53;;;;;;;45.05;31.13;;;;;;;5.83;90.21;100742.13;5040631;28;20109;-81
2024/02/27 01:55:20;;;;;;;45.50;29.73;;;;;;;5.85;89.85;100748.13;5040008;28;20179;-78
2024/02/27 01:57:48;;;;;;;45.92;31.40;;;;;;;5.81;90.29;100741.38;5033826;28;20108;-84
2024/02/27 02:00:18;;;;;;;51.38;31.50;;;;;;;5.81;89.95;100736.97;5039355;28;20077;-80
2024/02/27 02:02:45;;;;;;;45.63;31.40;;;;;;;5.78;90.05;100731.06;5029031;28;20060;-81
2024/02/27 02:05:13;;;;;;;48.95;32.90;;;;;;;5.74;90.32;100734.84;5029387;28;20056;-81
2024/02/27 02:07:40;;;;;;;43.00;30.88;;;;;;;5.80;90.09;100735.31;5039031;28;20140;-82
2024/02/27 02:10:10;;;;;;;45.38;30.45;;;;;;;5.79;90.18;100738.00;5040295;28;20088;-82
2024/02/27 02:12:37;;;;;;;44.17;29.92;;;;;;;5.74;91.06;100732.22;5038512;28;20049;-82
2024/02/27 02:15:05;;;;;;;46.08;31.65;;;;;;;5.77;90.54;100735.50;5039429;28;20084;-82
2024/02/27 02:17:34;;;;;;;44.78;29.70;;;;;;;5.79;90.71;100740.63;5040085;28;20051;-82
2024/02/27 02:20:04;;;;;;;46.28;30.83;;;;;;;5.83;91.15;100744.75;5030686;28;20064;-82
2024/02/27 02:22:32;;;;;;;45.45;30.88;;;;;;;5.72;91.70;100745.47;5020001;28;20042;-81
2024/02/27 02:25:00;;;;;;;50.40;32.67;;;;;;;5.72;91.29;100747.25;5030489;28;20050;-81
2024/02/27 02:27:27;;;;;;;45.78;30.10;;;;;;;5.75;91.98;100752.28;5030787;28;20072;-81
2024/02/27 02:29:55;;;;;;;50.53;32.95;;;;;;;5.75;92.31;100761.00;5025526;28;20057;-81
2024/02/27 02:32:21;;;;;;;51.17;32.72;;;;;;;5.72;92.60;100752.50;5024054;28;20061;-82
2024/02/27 02:34:48;;;;;;;47.60;31.83;;;;;;;5.67;92.73;100754.56;5038108;28;20140;-83
2024/02/27 02:37:14;;;;;;;48.53;32.28;;;;;;;5.61;93.25;100747.91;5032038;28;20129;-81
2024/02/27 02:39:42;;;;;;;53.80;33.95;;;;;;;5.63;93.39;100746.06;5037294;28;20144;-82
2024/02/27 02:42:09;;;;;;;50.45;33.42;;;;;;;5.61;93.54;100747.91;5032678;28;20208;-82
2024/02/27 02:44:36;;;;;;;48.42;32.65;;;;;;;5.54;93.27;100750.13;5035839;28;20345;-81
2024/02/27 02:47:02;;;;;;;53.55;33.13;;;;;;;5.57;93.47;100747.28;5030620;28;20081;-82
2024/02/27 02:49:29;;;;;;;53.20;33.22;;;;;;;5.48;93.69;100747.88;5039084;28;20076;-81
2024/02/27 02:51:56;;;;;;;52.78;33.80;;;;;;;5.49;93.47;100748.72;5022986;28;20045;-82
2024/02/27 02:54:23;;;;;;;52.72;34.55;;;;;;;5.43;93.46;100751.75;5039753;28;20427;-81
2024/02/27 02:56:50;;;;;;;50.10;33.58;;;;;;;5.36;94.07;100751.31;5038178;28;20053;-82
2024/02/27 02:59:23;;;;;;;54.40;34.47;;;;;;;5.38;93.55;100759.91;5030176;28;20103;-82
2024/02/27 03:01:50;;;;;;;53.72;34.70;;;;;;;5.36;92.99;100767.03;5031862;28;20054;-81
2024/02/27 03:04:16;;;;;;;54.60;33.70;;;;;;;5.50;92.77;100771.41;5033859;28;20132;-81
2024/02/27 03:06:43;;;;;;;52.50;34.38;;;;;;;5.48;92.32;100771.50;5022578;28;20085;-82
2024/02/27 03:09:10;;;;;;;49.85;33.17;;;;;;;5.44;92.63;100766.53;5039743;28;20099;-81
2024/02/27 03:11:37;;;;;;;50.30;34.22;;;;;;;5.46;92.17;100768.13;5034788;28;20052;-82
2024/02/27 03:14:06;;;;;;;51.08;31.92;;;;;;;5.47;92.30;100777.69;5033271;28;20107;-82
2024/02/27 03:16:32;;;;;;;53.13;33.47;;;;;;;5.53;92.08;100768.56;5039270;28;20071;-82
2024/02/27 03:18:59;;;;;;;53.88;35.20;;;;;;;5.44;92.08;100774.41;5024005;28;20081;-81
2024/02/27 03:21:26;;;;;;;52.67;33.78;;;;;;;5.48;92.01;100781.16;5024576;28;20046;-81
2024/02/27 03:23:52;;;;;;;58.13;33.85;;;;;;;5.42;91.95;100771.91;5031475;28;20080;-81
2024/02/27 03:26:21;;;;;;;53.40;33.42;;;;;;;5.49;91.08;100772.31;5040197;28;20068;-82
2024/02/27 03:28:48;;;;;;;48.88;32.03;;;;;;;5.38;91.24;100769.56;5030760;28;20053;-81
2024/02/27 03:31:16;;;;;;;50.28;32.05;;;;;;;5.41;91.17;100774.63;5026508;28;20085;-80
2024/02/27 03:33:42;;;;;;;49.60;32.00;;;;;;;5.42;91.25;100768.44;5036984;28;20140;-81
2024/02/27 03:36:09;;;;;;;48.90;32.45;;;;;;;5.47;91.02;100782.09;5025927;28;20080;-81
2024/02/27 03:38:40;;;;;;;50.08;32.05;;;;;;;5.42;90.84;100785.00;5054683;23;20045;-81
2024/02/27 03:41:12;;;;;;;50.67;31.88;;;;;;;5.42;90.51;100779.78;5035360;28;20132;-83
2024/02/27 03:43:38;;;;;;;48.03;31.13;;;;;;;5.37;90.75;100784.47;5040188;28;20069;-83
2024/02/27 03:46:05;;;;;;;50.63;30.98;;;;;;;5.41;90.68;100785.97;5039925;28;20144;-82
2024/02/27 03:48:33;;;;;;;50.83;32.47;;;;;;;5.40;90.45;100784.25;5031476;28;20080;-82
2024/02/27 03:51:00;;;;;;;49.60;31.48;;;;;;;5.40;90.08;100794.75;5021614;28;20050;-84
2024/02/27 03:53:29;;;;;;;47.28;30.83;;;;;;;5.40;90.37;100792.13;5025414;28;20073;-83
2024/02/27 03:55:56;;;;;;;47.28;31.67;;;;;;;5.43;89.36;100805.06;5020342;28;20128;-83
2024/02/27 03:58:23;;;;;;;48.70;32.10;;;;;;;5.42;89.97;100808.63;5021088;28;20443;-81
2024/02/27 04:00:50;;;;;;;48.10;30.52;;;;;;;5.40;89.17;100809.66;5020814;28;20061;-85
2024/02/27 04:03:17;;;;;;;48.90;31.20;;;;;;;5.32;89.49;100808.38;5020897;28;20080;-83
2024/02/27 04:05:47;;;;;;;51.92;30.70;;;;;;;5.32;89.74;100815.41;5022478;28;20523;-83
2024/02/27 04:08:13;;;;;;;46.83;30.33;;;;;;;5.30;90.10;100817.28;5025762;28;20619;-82
2024/02/27 04:10:40;;;;;;;48.97;31.27;;;;;;;5.23;90.04;100821.22;5020906;28;20050;-82
2024/02/27 04:13:07;;;;;;;50.55;30.65;;;;;;;5.20;89.73;100819.63;5024888;28;20072;-81
2024/02/27 04:15:33;;;;;;;52.35;33.13;;;;;;;5.17;89.85;100819.81;5030289;28;20053;-84
2024/02/27 04:18:00;;;;;;;50.60;31.27;;;;;;;5.19;89.99;100822.34;5026159;28;20050;-84
2024/02/27 04:20:27;;;;;;;51.35;32.53;;;;;;;5.15;89.93;100821.69;5028792;28;20049;-83
2024/02/27 04:22:55;;;;;;;54.22;32.80;;;;;;;5.18;90.12;100831.13;5024787;28;20050;-83
2024/02/27 04:25:22;;;;;;;50.10;32.35;;;;;;;5.14;90.13;100832.28;5029724;28;20115;-81
2024/02/27 04:27:49;;;;;;;52.00;32.40;;;;;;;5.16;89.98;100840.91;5030354;28;20084;-84
2024/02/27 04:30:15;;;;;;;53.00;33.10;;;;;;;5.18;90.01;100836.38;5025761;28;20054;-84
2024/02/27 04:32:44;;;;;;;50.13;32.00;;;;;;;5.16;89.98;100840.91;5039340;28;20073;-84
2024/02/27 04:35:10;;;;;;;51.80;32.33;;;;;;;5.19;89.96;100848.59;5025844;28;20046;-84
2024/02/27 04:37:37;;;;;;;54.25;34.05;;;;;;;5.18;89.85;100854.75;5027330;28;20105;-84
2024/02/27 04:40:06;;;;;;;49.10;31.67;;;;;;;5.21;89.97;100857.19;5028514;28;20069;-82
2024/02/27 04:42:32;;;;;;;55.33;33.35;;;;;;;5.13;90.71;100854.19;5014943;28;20124;-84
2024/02/27 04:44:59;;;;;;;50.83;32.10;;;;;;;5.16;90.02;100854.03;5026294;28;20049;-84
2024/02/27 04:47:26;;;;;;;57.05;33.03;;;;;;;5.16;90.61;100854.84;5030795;28;20045;-82
2024/02/27 04:49:52;;;;;;;51.05;33.03;;;;;;;5.17;90.38;100855.69;5021951;28;20053;-84
2024/02/27 04:52:19;;;;;;;50.97;31.58;;;;;;;5.17;90.15;100861.78;5022736;28;20042;-84
2024/02/27 04:54:46;;;;;;;50.45;32.63;;;;;;;5.12;90.64;100853.34;5025008;28;20089;-84
2024/02/27 04:57:14;;;;;;;55.08;33.38;;;;;;;5.18;90.07;100865.25;5033325;28;20049;-84
2024/02/27 04:59:40;;;;;;;49.88;32.53;;;;;;;5.16;90.47;100865.34;5021911;28;20131;-84
2024/02/27 05:02:07;;;;;;;52.38;33.20;;;;;;;5.13;90.63;100867.31;5021220;28;20087;-83
2024/02/27 05:04:34;;;;;;;52.03;32.90;;;;;;;5.15;89.98;100876.78;5024029;28;20046;-82
2024/02/27 05:07:01;;;;;;;54.83;33.72;;;;;;;5.12;90.15;100887.47;5029316;28;20076;-86
2024/02/27 05:09:28;;;;;;;49.88;31.88;;;;;;;5.08;90.05;100878.94;5029506;28;20048;-84
2024/02/27 05:11:54;;;;;;;53.42;34.08;;;;;;;5.08;90.83;100884.16;5035864;28;20469;-84
2024/02/27 05:14:22;;;;;;;54.97;33.03;;;;;;;5.02;90.89;100886.34;5023160;28;20104;-83
2024/02/27 05:16:49;;;;;;;54.65;33.55;;;;;;;5.01;90.93;100887.28;5035247;28;20046;-85
2024/02/27 05:19:15;;;;;;;53.90;33.15;;;;;;;5.05;90.75;100884.38;5033304;28;20068;-85
2024/02/27 05:21:42;;;;;;;54.40;33.17;;;;;;;5.06;90.17;100880.81;5040355;28;20061;-84
2024/02/27 05:24:09;;;;;;;52.70;32.70;;;;;;;5.07;90.24;100892.97;5040583;28;20057;-86
2024/02/27 05:26:36;;;;;;;53.50;33.70;;;;;;;5.03;90.18;100891.47;5038192;28;20049;-85
2024/02/27 05:29:02;;;;;;;52.03;32.33;;;;;;;5.01;90.57;100898.59;5040808;28;20049;-86
2024/02/27 05:31:31;;;;;;;52.78;31.65;;;;;;;5.07;90.69;100900.00;5030270;28;20053;-86
2024/02/27 05:33:59;;;;;;;52.35;32.25;;;;;;;4.97;91.37;100898.88;5032840;28;20108;-86
2024/02/27 05:36:28;;;;;;;49.88;31.55;;;;;;;4.96;91.36;100902.44;5032210;28;20050;-85
2024/02/27 05:38:55;;;;;;;52.67;33.33;;;;;;;4.98;90.88;100897.94;5038742;28;20085;-86
2024/02/27 05:41:22;;;;;;;49.80;31.58;;;;;;;5.03;90.36;100901.13;5024356;28;20045;-86
2024/02/27 05:43:50;;;;;;;50.85;32.20;;;;;;;5.00;90.49;100899.56;5022763;28;20080;-86
2024/02/27 05:46:17;;;;;;;52.88;32.40;;;;;;;5.01;90.04;100903.84;5023243;28;20049;-86
2024/02/27 05:48:45;;;;;;;48.38;30.30;;;;;;;4.98;90.04;100909.28;5033626;28;20487;-87
2024/02/27 05:51:12;;;;;;;51.35;31.67;;;;;;;5.04;89.94;100914.19;5023751;28;20116;-82
2024/02/27 05:53:39;;;;;;;53.25;32.10;;;;;;;5.05;89.87;100915.84;5024896;28;20041;-85
2024/02/27 05:56:06;;;;;;;48.03;30.75;;;;;;;5.00;89.68;100919.66;5022846;28;20057;-84
2024/02/27 05:58:33;;;;;;;52.75;31.30;;;;;;;4.95;90.59;100925.19;5021884;28;20117;-84
2024/02/27 06:00:59;;;;;;;45.17;29.00;;;;;;;4.96;89.95;100926.06;5023000;28;20081;-87
2024/02/27 06:03:26;;;;;;;46.28;30.42;;;;;;;5.02;89.54;100929.13;5021751;28;20058;-87
2024/02/27 06:05:54;;;;;;;48.63;30.38;;;;;;;4.99;89.71;100934.56;5021856;28;20456;-84
2024/02/27 06:08:21;;;;;;;47.38;28.15;;;;;;;4.99;90.17;100931.94;5035023;28;20111;-83
2024/02/27 06:10:48;;;;;;;47.15;30.17;;;;;;;5.06;89.53;100943.75;5028396;28;20046;-81
2024/02/27 06:13:15;;;;;;;49.70;31.25;;;;;;;5.02;89.62;100941.41;5018967;28;20377;-84
2024/02/27 06:15:44;;;;;;;48.55;30.33;;;;;;;4.96;89.96;100950.50;5023012;28;20054;-84
2024/02/27 06:18:13;;;;;;;49.15;30.48;;;;;;;4.98;90.00;100946.00;5026297;28;20057;-84
2024/02/27 06:23:27;;;;;;;48.92;29.95;;;;;;;5.00;89.93;100959.88;5020572;28;20061;-83
2024/02/27 06:25:54;;;;;;;47.35;30.40;;;;;;;4.97;89.61;100959.22;5030544;28;20055;-83
2024/02/27 06:28:20;;;;;;;49.40;31.17;;;;;;;4.95;89.68;100959.28;5022478;28;20135;-83
2024/02/27 06:30:47;;;;;;;51.85;31.48;;;;;;;4.95;90.26;100969.75;5020893;28;20089;-83
2024/02/27 06:33:14;;;;;;;48.30;30.73;;;;;;;4.97;90.10;100973.16;5021699;28;20056;-84
2024/02/27 06:35:40;;;;;;;50.28;30.38;;;;;;;5.02;89.79;100978.97;5026906;28;20054;-80
2024/02/27 06:38:07;;;;;;;52.25;31.75;;;;;;;5.01;89.77;100974.66;5021299;28;20049;-82
2024/02/27 06:40:35;;;;;;;49.90;30.90;;;;;;;5.02;89.86;100972.88;5020448;28;20081;-83
2024/02/27 06:43:03;;;;;;;51.80;32.80;;;;;;;5.06;89.73;100977.03;5026724;28;20114;-83
2024/02/27 06:45:30;;;;;;;50.47;31.48;;;;;;;5.03;90.18;100985.06;5022881;28;20056;-83
2024/02/27 06:47:56;;;;;;;48.97;31.15;;;;;;;4.98;90.32;100992.34;5020454;28;20081;-82
2024/02/27 06:50:23;;;;;;;49.00;31.83;;;;;;;5.01;90.98;100997.44;5031625;28;20104;-83
2024/02/27 06:52:49;;;;;;;48.40;30.02;;;;;;;4.87;92.10;100997.41;5033591;28;20057;-81
2024/02/27 06:55:16;;;;;;;48.08;31.48;;;;;;;4.99;92.04;100994.88;5033220;28;20081;-81
2024/02/27 06:57:44;;;;;;;50.78;31.67;;;;;;;4.98;92.21;100997.59;5037712;28;20083;-83
2024/02/27 07:00:12;;;;;;;55.78;33.28;;;;;;;4.94;92.43;100999.56;5022908;28;20049;-83
2024/02/27 07:02:38;;;;;;;52.28;32.75;;;;;;;4.89;91.94;101009.47;5023239;28;20104;-81
2024/02/27 07:05:06;;;;;;;57.47;34.13;;;;;;;4.91;92.24;101006.75;5031492;28;20591;-81
2024/02/27 07:07:32;;;;;;;51.17;32.25;;;;;;;5.03;91.89;101012.13;5025516;28;20489;-80
2024/02/27 07:10:00;;;;;;;52.58;33.10;;;;;;;5.06;90.75;101006.72;5028702;28;20109;-82
2024/02/27 07:12:27;;;;;;;49.72;31.42;;;;;;;5.15;90.43;101010.59;5023451;28;20088;-83
2024/02/27 07:14:56;;;;;;;49.65;33.17;;;;;;;5.19;89.95;101013.88;5016678;28;20049;-81
2024/02/27 07:17:23;;;;;;;52.25;33.00;;;;;;;5.08;90.76;101012.72;5028785;28;20400;-80
2024/02/27 07:19:49;;;;;;;51.63;33.03;;;;;;;4.98;90.30;101005.47;5026591;28;20053;-82
2024/02/27 07:22:16;;;;;;;56.55;33.00;;;;;;;5.13;90.39;101015.06;5030951;28;20102;-82
2024/02/27 07:24:42;;;;;;;51.35;32.97;;;;;;;5.17;89.50;101019.19;5031154;28;20050;-82
2024/02/27 07:27:09;;;;;;;50.00;32.08;;;;;;;5.29;89.10;101022.88;5039012;28;20077;-82
2024/02/27 07:29:36;;;;;;;54.50;33.25;;;;;;;5.34;88.29;101015.59;5030140;28;20126;-82
2024/02/27 07:32:04;;;;;;;49.33;32.88;;;;;;;5.33;88.31;101016.53;5026975;28;20085;-81
2024/02/27 07:34:31;;;;;;;50.65;33.00;;;;;;;5.30;88.70;101019.31;5018352;28;20073;-81
2024/02/27 07:36:58;;;;;;;50.25;31.30;;;;;;;5.47;88.06;101020.94;5019214;28;20053;-81
2024/02/27 07:39:24;;;;;;;48.97;31.52;;;;;;;5.55;87.71;101029.22;5019388;28;20133;-83
2024/02/27 07:41:51;;;;;;;51.83;31.08;;;;;;;5.70;87.26;101024.81;5027761;28;20544;-83
2024/02/27 07:44:17;;;;;;;49.05;33.50;;;;;;;5.72;86.49;101033.47;5029852;28;20101;-82
2024/02/27 07:46:44;;;;;;;50.35;32.35;;;;;;;5.77;86.01;101026.97;5029102;28;20052;-81
2024/02/27 07:49:12;;;;;;;44.58;30.27;;;;;;;5.74;87.16;101039.44;5032429;28;20050;-81
2024/02/27 07:51:38;;;;;;;49.83;31.83;;;;;;;5.87;85.83;101045.63;5030426;28;20110;-82
2024/02/27 07:54:06;;;;;;;47.08;31.20;;;;;;;5.96;85.42;101054.78;5037244;28;20091;-80
2024/02/27 07:56:32;;;;;;;47.08;30.77;;;;;;;6.06;85.58;101063.78;5037675;28;20057;-82
2024/02/27 07:58:59;;;;;;;46.47;31.48;;;;;;;6.10;85.03;101065.28;5026057;28;20495;-83
2024/02/27 08:01:26;;;;;;;47.10;30.60;;;;;;;6.24;84.03;101060.00;5034699;28;20084;-81
2024/02/27 08:03:52;;;;;;;47.85;31.70;;;;;;;6.23;84.82;101054.84;5019956;28;20361;-82
2024/02/27 08:06:22;;;;;;;45.65;31.05;;;;;;;6.36;83.83;101050.50;5024969;28;20076;-81
2024/02/27 08:08:52;;;;;;;44.42;31.00;;;;;;;6.43;83.47;101057.09;5028892;28;20050;-81
2024/02/27 08:11:18;;;;;;;43.42;31.05;;;;;;;6.47;82.93;101061.19;5023371;28;20057;-82
2024/02/27 08:13:45;;;;;;;45.50;31.42;;;;;;;6.29;82.59;101057.91;5021503;28;20046;-83
2024/02/27 08:16:12;;;;;;;45.70;30.25;;;;;;;6.31;83.51;101056.06;5036697;28;20518;-80
2024/02/27 08:18:38;;;;;;;45.55;30.40;;;;;;;6.29;83.72;101063.19;5036477;28;20104;-79
2024/02/27 08:21:05;;;;;;;45.72;30.77;;;;;;;6.28;83.81;101064.13;5022906;28;20464;-83
2024/02/27 08:23:34;;;;;;;48.53;31.48;;;;;;;6.49;83.71;101064.56;5024770;28;20089;-82
2024/02/27 08:26:01;;;;;;;45.55;31.25;;;;;;;6.59;82.47;101072.72;5016216;28;20092;-82
2024/02/27 08:28:28;;;;;;;46.70;31.27;;;;;;;6.63;82.38;101081.25;5017178;28;20193;-82
2024/02/27 08:30:54;;;;;;;46.00;30.90;;;;;;;6.63;82.12;101076.84;5018679;28;20427;-82
2024/02/27 08:33:21;;;;;;;44.30;30.73;;;;;;;6.67;82.27;101078.34;5027130;28;20125;-83
2024/02/27 08:35:48;;;;;;;45.38;30.35;;;;;;;6.69;82.11;101081.69;5035387;28;20081;-81
2024/02/27 08:38:15;;;;;;;47.83;32.40;;;;;;;6.62;82.27;101087.47;5025010;28;20432;-81
2024/02/27 08:40:44;;;;;;;45.72;31.20;;;;;;;6.64;81.70;101090.81;5038399;28;20050;-80
2024/02/27 08:43:13;;;;;;;43.38;29.67;;;;;;;6.66;82.07;101096.84;5030613;28;20045;-80
2024/02/27 08:45:40;;;;;;;44.33;30.67;;;;;;;6.48;81.88;101098.84;5029837;28;20049;-81
2024/02/27 08:48:07;;;;;;;43.75;30.23;;;;;;;6.44;82.85;101098.19;5018572;28;20090;-79
2024/02/27 08:50:34;;;;;;;47.10;32.78;;;;;;;6.39;83.25;101096.81;5031079;28;20108;-81
2024/02/27 08:53:01;;;;;;;48.45;33.35;;;;;;;6.47;82.57;101092.72;5027305;28;20106;-81
2024/02/27 08:55:29;;;;;;;45.05;30.95;;;;;;;6.47;82.87;101084.84;5029306;28;20088;-80
2024/02/27 08:57:58;;;;;;;44.97;31.15;;;;;;;6.33;83.01;101095.38;5027609;28;20053;-81
2024/02/27 09:00:25;;;;;;;47.35;31.90;;;;;;;6.66;83.17;101095.06;5025670;28;20113;-80
2024/02/27 09:02:52;;;;;;;47.65;31.70;;;;;;;6.67;81.64;101088.84;5027719;28;20076;-82
2024/02/27 09:05:19;;;;;;;45.55;30.85;;;;;;;6.67;82.24;101094.09;5050888;28;20041;-81
2024/02/27 09:07:45;;;;;;;45.97;30.45;;;;;;;6.72;82.02;101097.28;5033233;28;20050;-81
2024/02/27 09:10:12;;;;;;;43.65;30.15;;;;;;;6.77;80.91;101095.19;5039734;28;20060;-80
2024/02/27 09:12:40;;;;;;;46.17;30.90;;;;;;;6.83;81.24;101089.56;5044047;28;20143;-81
2024/02/27 09:15:09;;;;;;;47.60;31.25;;;;;;;6.76;80.94;101098.78;5048197;28;20065;-81
2024/02/27 09:17:36;;;;;;;44.47;29.58;;;;;;;6.93;81.10;101097.72;5051673;28;20132;-81
2024/02/27 09:20:03;;;;;;;45.63;30.58;;;;;;;6.94;80.92;101096.75;5045965;28;20092;-79
2024/02/27 09:22:31;;;;;;;43.15;29.98;;;;;;;7.20;79.70;101081.91;5032589;28;20136;-81
2024/02/27 09:24:58;;;;;;;45.00;30.50;;;;;;;7.37;79.50;101088.69;5039037;28;20057;-80
2024/02/27 09:27:24;;;;;;;45.25;29.63;;;;;;;7.25;79.41;101078.97;5031778;28;20084;-81
2024/02/27 09:29:54;;;;;;;42.42;29.88;;;;;;;7.25;79.73;101084.22;5027263;28;20106;-82
2024/02/27 09:32:22;;;;;;;42.90;29.00;;;;;;;7.55;78.97;101081.34;5034697;28;20099;-82
2024/02/27 09:34:50;;;;;;;43.08;30.20;;;;;;;7.51;79.23;101077.22;5033556;28;20133;-82
2024/02/27 09:37:18;;;;;;;42.85;30.00;;;;;;;7.58;78.48;101087.22;5036891;23;20068;-76
2024/02/27 09:39:45;;;;;;;43.85;30.63;;;;;;;7.37;79.57;101093.94;5012392;28;20058;-77
2024/02/27 09:42:12;;;;;;;44.70;30.50;;;;;;;7.53;78.64;101099.03;5006868;28;20046;-77
2024/02/27 09:44:40;;;;;;;41.45;28.65;;;;;;;7.70;79.13;101105.78;5013563;28;20136;-78
2024/02/27 09:47:07;;;;;;;43.97;30.38;;;;;;;7.60;78.45;101101.16;5015504;28;20225;-77
2024/02/27 09:49:38;;;;;;;39.47;29.20;;;;;;;7.25;77.71;101110.56;5006760;28;20138;-78
2024/02/27 09:52:07;;;;;;;39.08;27.90;;;;;;;7.37;77.49;101104.47;5007213;28;20150;-77
2024/02/27 09:54:35;;;;;;;40.90;28.02;;;;;;;7.50;77.73;101108.00;5014524;28;20044;-76
2024/02/27 09:57:04;;;;;;;37.38;27.10;;;;;;;7.55;77.37;101119.06;5006916;28;20062;-78
2024/02/27 09:59:31;;;;;;;40.53;28.88;;;;;;;7.46;77.30;101109.13;5016436;28;20069;-78
2024/02/27 10:02:04;;;;;;;40.25;27.73;;;;;;;7.85;76.94;101110.00;5009252;28;20042;-78
2024/02/27 10:04:32;;;;;;;41.53;28.23;;;;;;;7.75;75.43;101107.16;5017686;28;20270;-78
2024/02/27 10:07:01;;;;;;;38.60;26.48;;;;;;;7.37;76.54;101115.00;4999081;28;20137;-78
2024/02/27 10:09:30;;;;;;;38.17;27.13;;;;;;;7.19;77.97;101124.09;5013886;28;20085;-78
2024/02/27 10:11:57;;;;;;;46.50;28.45;;;;;;;7.51;76.81;101120.19;5017127;28;20050;-78
2024/02/27 10:14:32;;;;;;;35.92;26.60;;;;;;;8.08;75.75;101118.97;5017482;28;20567;-78
2024/02/27 10:16:59;;;;;;;36.38;25.58;;;;;;;7.59;75.26;101124.97;5016290;28;20046;-77
2024/02/27 10:19:27;;;;;;;36.42;26.52;;;;;;;7.77;75.55;101118.44;5017041;28;20046;-78
2024/02/27 10:21:55;;;;;;;43.70;28.27;;;;;;;8.47;74.37;101125.06;5016605;28;20080;-77
2024/02/27 10:24:25;;;;;;;40.58;27.50;;;;;;;8.60;73.72;101118.81;5016245;28;20049;-77
2024/02/27 10:26:53;;;;;;;35.40;26.67;;;;;;;8.19;73.24;101115.59;5016495;28;20528;-77
2024/02/27 10:29:21;;;;;;;35.78;25.40;;;;;;;8.35;73.16;101124.13;5014505;28;20046;-77
2024/02/27 10:31:48;;;;;;;36.40;26.20;;;;;;;8.26;73.13;101122.13;5015374;28;20050;-79
2024/02/27 10:34:15;;;;;;;36.28;27.23;;;;;;;8.58;73.01;101120.75;5015940;28;20145;-78
2024/02/27 10:36:41;;;;;;;37.90;27.15;;;;;;;8.88;72.55;101116.84;5016289;28;20138;-77
2024/02/27 10:39:08;;;;;;;34.95;25.05;;;;;;;8.49;72.15;101121.41;5015962;28;20132;-77
2024/02/27 10:41:38;;;;;;;35.92;25.95;;;;;;;8.52;73.23;101110.59;5014872;28;20054;-78
2024/02/27 10:44:07;;;;;;;37.92;26.70;;;;;;;8.90;72.44;101114.94;5014309;28;20050;-78
2024/02/27 10:46:34;;;;;;;34.22;25.60;;;;;;;8.88;72.38;101116.84;5014283;28;20446;-78
2024/02/27 10:49:01;;;;;;;35.92;26.88;;;;;;;8.53;73.06;101117.59;5013101;28;20054;-81
2024/02/27 10:51:28;;;;;;;37.47;26.35;;;;;;;8.35;74.48;101119.69;5013436;28;20128;-78
2024/02/27 10:53:57;;;;;;;40.35;26.65;;;;;;;8.51;73.12;101119.47;5013984;28;20157;-78
2024/02/27 10:56:24;;;;;;;37.83;27.45;;;;;;;8.45;74.20;101122.56;5014101;28;20424;-79
2024/02/27 10:58:53;;;;;;;39.05;27.05;;;;;;;8.65;73.24;101118.50;5013384;28;20053;-79
2024/02/27 11:01:20;;;;;;;36.78;26.90;;;;;;;8.41;73.20;101123.72;5013889;28;20050;-78
2024/02/27 11:03:51;;;;;;;39.13;26.70;;;;;;;8.46;72.78;101126.88;5012738;28;20137;-78
2024/02/27 11:06:24;;;;;;;35.97;26.38;;;;;;;8.63;73.03;101138.03;5014045;28;20054;-78
2024/02/27 11:08:56;;;;;;;37.78;26.83;;;;;;;8.61;73.27;101132.84;5013802;28;20097;-79
2024/02/27 11:11:22;;;;;;;41.70;26.35;;;;;;;8.67;73.20;101118.41;5013377;28;20074;-78
2024/02/27 11:13:53;;;;;;;37.97;26.58;;;;;;;8.95;72.57;101111.97;5012874;28;20132;-78
2024/02/27 11:16:23;;;;;;;37.38;26.55;;;;;;;9.16;71.54;101120.97;5013824;28;20124;-77
2024/02/27 11:18:53;;;;;;;38.42;28.23;;;;;;;9.04;70.89;101116.56;5013365;28;20049;-78